Flight Track Log - Related Links

Times and Time Zones

All times are in EDT time to prevent confusion due to time zone crossing. See the N199CG flight status page for this flight to view local times or setup timezone preferences in your user account.

Time Position Orientation Groundspeed Altitude Reporting Facility
EDT Latitude Longitude Course Direction KTS MPH feet Rate Location/Type
Sat 07:42:43 PM 36.4842 -82.3139 109° East 145 167 4,700  Level Atlanta Center
Sat 07:43:43 PM 36.4689 -82.2653 111° Southeast 152 175 6,200 1,400 Climbing Atlanta Center
Sat 07:44:43 PM 36.4514 -82.2139 113° Southeast 175 201 7,500 1,400 Climbing Atlanta Center
Sat 07:45:43 PM 36.4339 -82.1653 114° Southeast 169 194 9,000 1,300 Climbing Atlanta Center
Sat 07:46:43 PM 36.4167 -82.1167 114° Southeast 162 186 10,100 1,000 Climbing Atlanta Center
Sat 07:47:00 PM 36.3297 -81.9704 109° East  Level FlightAware Approximate
Sat 07:47:43 PM 36.3989 -82.0603 111° Southeast 162 186 11,000  Level Atlanta Center
Sat 07:48:00 PM 36.3087 -81.8969 109° East  Level FlightAware Approximate
Sat 07:48:43 PM 36.3769 -81.9939 112° Southeast 185 213 11,000  Level Atlanta Center
Sat 07:49:43 PM 36.3572 -81.9300 111° Southeast 200 230 12,500 1,500 Climbing Atlanta Center
Sat 07:50:43 PM 36.3394 -81.8711 111° Southeast 177 204 14,000 1,250 Climbing Atlanta Center
Sat 07:51:43 PM 36.3197 -81.8200 116° Southeast 168 193 15,000 500 Climbing Atlanta Center
Sat 07:52:43 PM 36.2997 -81.7561 111° Southeast 184 212 15,000  Level Atlanta Center
Sat 07:53:43 PM 36.2756 -81.6875 114° Southeast 207 238 15,000  Level Atlanta Center
Sat 07:54:43 PM 36.2533 -81.6211 113° Southeast 218 251 15,000  Level Atlanta Center
Sat 07:55:43 PM 36.2292 -81.5522 113° Southeast 223 257 15,000  Level Atlanta Center
Sat 07:56:43 PM 36.2047 -81.4811 113° Southeast 223 257 15,000  Level Atlanta Center
Sat 07:57:43 PM 36.1803 -81.4097 113° Southeast 218 251 15,000  Level Atlanta Center
Sat 07:58:43 PM 36.1578 -81.3386 111° Southeast 218 251 15,000  Level Atlanta Center
Sat 07:59:43 PM 36.1292 -81.2622 115° Southeast 223 257 15,000  Level Atlanta Center
Sat 08:00:43 PM 36.1314 -81.1800 88° East 223 257 15,000  Level Atlanta Center
Sat 08:01:43 PM 36.1233 -81.1006 97° East 228 262 15,000  Level Atlanta Center
Sat 08:02:43 PM 36.1089 -81.0239 103° East 233 268 15,000  Level Atlanta Center
Sat 08:03:43 PM 36.0781 -80.9583 120° Southeast 226 260 15,000  Level Atlanta Center
Sat 08:04:43 PM 36.0533 -80.8900 114° Southeast 226 260 15,000  Level Atlanta Center
Sat 08:05:43 PM 36.0267 -80.8217 116° Southeast 220 253 15,000  Level Atlanta Center
Sat 08:06:43 PM 35.9975 -80.7511 117° Southeast 220 253 15,000 -350 Level Atlanta Center
Sat 08:07:43 PM 35.9708 -80.6906 119° Southeast 220 253 14,300 -1,000 Descending Atlanta Center
Sat 08:08:43 PM 35.9314 -80.6228 126° Southeast 232 267 13,000 -700 Descending Atlanta Center
Sat 08:09:43 PM 35.9006 -80.5575 120° Southeast 227 261 12,900 -750 Descending Atlanta Center
Sat 08:10:43 PM 35.8733 -80.4894 116° Southeast 220 253 11,500 -2,050 Descending Atlanta Center
Sat 08:11:43 PM 35.8442 -80.4164 116° Southeast 225 259 8,800 -2,750 Descending Atlanta Center
Sat 08:12:43 PM 35.8147 -80.3383 115° Southeast 225 259 6,000 -2,750 Descending Atlanta Center
Sat 08:13:43 PM 35.7919 -80.2756 114° Southeast 220 253 3,300 -1,500 Descending Atlanta Center
Sat 08:14:43 PM 35.7733 -80.2147 111° Southeast 209 241 3,000 -150 Descending Atlanta Center
Sat 08:15:43 PM 35.7483 -80.1494 115° Southeast 202 232 3,000  Level Atlanta Center
Sat 08:16:43 PM 35.7300 -80.0992 114° Southeast 185 213 3,000  Level Atlanta Center
Sat 08:18:00 PM 35.6950 -80.0208 116° Southeast  Level FlightAware Approximate
Sat 08:25:00 PM 35.6545 -79.8948 107° East  Level Estimated

Login

Don't have an account? Register now (free) for customized features, flight alerts, and more!